RYR6AV EGPH-EKCH
Flight info
| Callsign | RYR6AV |
|---|---|
| Flight time | N/A |
| Altitude | 39000 |
| Route | GRICE P600 ASNUD DCT ADN DCT ELSAN DCT VAXIT DCT ABINO T56 TESPI |
| Aircraft | B738/M-SDE3FGILRWY/SB1 |
Departure
| Time | 2026-04-22 19:36 |
|---|---|
| Airport | Edinburgh Airport (EGPH) |
Arrival
| Time | N/A |
|---|---|
| Airport | Copenhagen Kastrup Airport (EKCH) |
| Time | Latitude | Longitude | Altitude | Speed | Heading |
|---|---|---|---|---|---|
| 2026-04-22 19:06 | 55.94612 | -3.36630 | 115 ft | 0 kts | 89° |
| 2026-04-22 19:24 | 55.94612 | -3.36634 | 115 ft | 1 kts | 89° |
| 2026-04-22 19:24 | 55.94611 | -3.36665 | 112 ft | 3 kts | 79° |
| 2026-04-22 19:24 | 55.94605 | -3.36698 | 111 ft | 3 kts | 59° |
| 2026-04-22 19:24 | 55.94593 | -3.36724 | 111 ft | 3 kts | 29° |
| 2026-04-22 19:25 | 55.94579 | -3.36732 | 113 ft | 1 kts | 359° |
| 2026-04-22 19:25 | 55.94578 | -3.36732 | 113 ft | 0 kts | 359° |
| 2026-04-22 19:27 | 55.94579 | -3.36732 | 113 ft | 1 kts | 359° |
| 2026-04-22 19:28 | 55.94599 | -3.36733 | 112 ft | 5 kts | 359° |
| 2026-04-22 19:28 | 55.94645 | -3.36734 | 115 ft | 9 kts | 359° |
| 2026-04-22 19:28 | 55.94718 | -3.36737 | 115 ft | 12 kts | 359° |
| 2026-04-22 19:28 | 55.94744 | -3.36741 | 115 ft | 1 kts | 341° |
| 2026-04-22 19:29 | 55.94764 | -3.36754 | 115 ft | 5 kts | 334° |
| 2026-04-22 19:29 | 55.94800 | -3.36783 | 114 ft | 6 kts | 355° |
| 2026-04-22 19:29 | 55.94852 | -3.36782 | 115 ft | 9 kts | 359° |
| 2026-04-22 19:29 | 55.94915 | -3.36833 | 115 ft | 11 kts | 308° |
| 2026-04-22 19:30 | 55.94915 | -3.36928 | 114 ft | 13 kts | 247° |
| 2026-04-22 19:30 | 55.94847 | -3.37131 | 112 ft | 16 kts | 238° |
| 2026-04-22 19:30 | 55.94785 | -3.37314 | 114 ft | 18 kts | 238° |
| 2026-04-22 19:30 | 55.94714 | -3.37518 | 114 ft | 20 kts | 238° |
| 2026-04-22 19:31 | 55.94639 | -3.37745 | 114 ft | 22 kts | 238° |
| 2026-04-22 19:31 | 55.94562 | -3.37973 | 112 ft | 21 kts | 238° |
| 2026-04-22 19:31 | 55.94485 | -3.38192 | 114 ft | 21 kts | 239° |
| 2026-04-22 19:31 | 55.94412 | -3.38407 | 113 ft | 20 kts | 239° |
| 2026-04-22 19:32 | 55.94342 | -3.38616 | 114 ft | 19 kts | 239° |
| 2026-04-22 19:32 | 55.94284 | -3.38803 | 114 ft | 13 kts | 258° |
| 2026-04-22 19:32 | 55.94291 | -3.38866 | 115 ft | 2 kts | 312° |
| 2026-04-22 19:32 | 55.94302 | -3.38881 | 112 ft | 2 kts | 326° |
| 2026-04-22 19:33 | 55.94315 | -3.38895 | 113 ft | 2 kts | 327° |
| 2026-04-22 19:33 | 55.94318 | -3.38899 | 114 ft | 0 kts | 328° |
| 2026-04-22 19:34 | 55.94337 | -3.38919 | 113 ft | 8 kts | 328° |
| 2026-04-22 19:34 | 55.94400 | -3.38972 | 113 ft | 7 kts | 1° |
| 2026-04-22 19:34 | 55.94410 | -3.38968 | 113 ft | 1 kts | 19° |
| 2026-04-22 19:35 | 55.94421 | -3.38951 | 112 ft | 5 kts | 43° |
| 2026-04-22 19:35 | 55.94473 | -3.38801 | 112 ft | 25 kts | 58° |
| 2026-04-22 19:35 | 55.94583 | -3.38475 | 112 ft | 70 kts | 58° |
| 2026-04-22 19:35 | 55.95128 | -3.36857 | 116 ft | 154 kts | 59° |
| 2026-04-22 19:36 | 55.95666 | -3.35224 | 870 ft | 141 kts | 59° |
| 2026-04-22 19:36 | 55.96288 | -3.33781 | 1353 ft | 160 kts | 38° |
| 2026-04-22 19:36 | 55.97165 | -3.32467 | 1926 ft | 172 kts | 41° |
| 2026-04-22 19:36 | 55.98131 | -3.30916 | 2241 ft | 202 kts | 41° |
| 2026-04-22 19:37 | 55.99240 | -3.29132 | 2468 ft | 226 kts | 40° |
| 2026-04-22 19:37 | 56.00611 | -3.27615 | 2832 ft | 237 kts | 22° |
| 2026-04-22 19:37 | 56.02226 | -3.26925 | 3360 ft | 241 kts | 3° |
| 2026-04-22 19:37 | 56.03887 | -3.27243 | 3934 ft | 242 kts | 343° |
| 2026-04-22 19:38 | 56.05395 | -3.28558 | 4497 ft | 243 kts | 323° |
| 2026-04-22 19:38 | 56.06567 | -3.30728 | 5042 ft | 245 kts | 303° |
| 2026-04-22 19:38 | 56.07281 | -3.33501 | 5484 ft | 247 kts | 287° |
| 2026-04-22 19:38 | 56.07697 | -3.36504 | 5507 ft | 249 kts | 282° |
| 2026-04-22 19:39 | 56.08074 | -3.39517 | 5512 ft | 247 kts | 282° |
| 2026-04-22 19:39 | 56.08460 | -3.42514 | 5517 ft | 247 kts | 283° |
| 2026-04-22 19:39 | 56.08858 | -3.45518 | 5506 ft | 249 kts | 283° |
| 2026-04-22 19:39 | 56.09271 | -3.48592 | 5511 ft | 262 kts | 283° |
| 2026-04-22 19:40 | 56.09708 | -3.51823 | 5490 ft | 269 kts | 283° |
| 2026-04-22 19:40 | 56.10268 | -3.55024 | 5513 ft | 270 kts | 295° |
| 2026-04-22 19:40 | 56.10836 | -3.56999 | 5525 ft | 270 kts | 298° |
| 2026-04-22 19:40 | 56.11743 | -3.59948 | 5527 ft | 270 kts | 299° |
| 2026-04-22 19:41 | 56.12669 | -3.62887 | 5527 ft | 271 kts | 301° |
| 2026-04-22 19:41 | 56.13953 | -3.65322 | 5520 ft | 271 kts | 327° |
| 2026-04-22 19:41 | 56.15683 | -3.66626 | 5529 ft | 271 kts | 343° |
| 2026-04-22 19:41 | 56.17508 | -3.67516 | 5522 ft | 271 kts | 345° |
| 2026-04-22 19:42 | 56.19383 | -3.67746 | 5515 ft | 272 kts | 8° |
| 2026-04-22 19:42 | 56.21176 | -3.66660 | 5699 ft | 277 kts | 31° |
| 2026-04-22 19:42 | 56.22764 | -3.64684 | 6529 ft | 277 kts | 35° |
| 2026-04-22 19:42 | 56.24317 | -3.62644 | 7389 ft | 278 kts | 36° |
| 2026-04-22 19:43 | 56.27484 | -3.58480 | 8930 ft | 285 kts | 36° |
| 2026-04-22 19:43 | 56.29097 | -3.56373 | 9691 ft | 288 kts | 36° |
| 2026-04-22 19:43 | 56.30717 | -3.54286 | 10373 ft | 294 kts | 35° |
| 2026-04-22 19:44 | 56.32482 | -3.52041 | 10574 ft | 318 kts | 35° |
| 2026-04-22 19:44 | 56.34318 | -3.49702 | 10878 ft | 336 kts | 35° |
| 2026-04-22 19:44 | 56.36249 | -3.47237 | 11468 ft | 343 kts | 35° |
| 2026-04-22 19:44 | 56.38202 | -3.44725 | 12183 ft | 346 kts | 35° |
| 2026-04-22 19:45 | 56.40165 | -3.42171 | 12927 ft | 349 kts | 36° |
| 2026-04-22 19:45 | 56.42136 | -3.39599 | 13651 ft | 353 kts | 36° |
| 2026-04-22 19:45 | 56.44138 | -3.36987 | 14344 ft | 357 kts | 35° |
| 2026-04-22 19:45 | 56.46182 | -3.34396 | 15069 ft | 361 kts | 34° |
| 2026-04-22 19:46 | 56.48267 | -3.31825 | 15782 ft | 364 kts | 34° |
| 2026-04-22 19:46 | 56.50375 | -3.29240 | 16480 ft | 368 kts | 34° |
| 2026-04-22 19:46 | 56.52503 | -3.26626 | 17159 ft | 371 kts | 34° |
| 2026-04-22 19:46 | 56.54651 | -3.23977 | 17819 ft | 375 kts | 34° |
| 2026-04-22 19:47 | 56.56816 | -3.21296 | 18465 ft | 379 kts | 34° |
| 2026-04-22 19:47 | 56.58999 | -3.18586 | 19074 ft | 382 kts | 34° |
| 2026-04-22 19:47 | 56.61202 | -3.15844 | 19689 ft | 386 kts | 34° |
| 2026-04-22 19:47 | 56.63430 | -3.13066 | 20277 ft | 390 kts | 34° |
| 2026-04-22 19:48 | 56.65672 | -3.10268 | 20843 ft | 393 kts | 34° |
| 2026-04-22 19:48 | 56.67935 | -3.07438 | 21392 ft | 397 kts | 34° |
| 2026-04-22 19:48 | 56.70220 | -3.04577 | 21922 ft | 401 kts | 34° |
| 2026-04-22 19:48 | 56.72526 | -3.01682 | 22452 ft | 404 kts | 34° |
| 2026-04-22 19:49 | 56.74846 | -2.98763 | 22969 ft | 407 kts | 34° |
| 2026-04-22 19:49 | 56.77185 | -2.95815 | 23430 ft | 411 kts | 34° |
| 2026-04-22 19:49 | 56.79547 | -2.92833 | 23891 ft | 414 kts | 34° |
| 2026-04-22 19:49 | 56.81923 | -2.89829 | 24358 ft | 418 kts | 34° |
| 2026-04-22 19:50 | 56.84316 | -2.86798 | 24832 ft | 420 kts | 34° |
| 2026-04-22 19:50 | 56.86716 | -2.83754 | 24983 ft | 422 kts | 34° |
| 2026-04-22 19:50 | 56.89137 | -2.80679 | 24993 ft | 422 kts | 34° |
| 2026-04-22 19:50 | 56.91537 | -2.77625 | 25000 ft | 421 kts | 34° |
| 2026-04-22 19:51 | 56.93946 | -2.74555 | 25005 ft | 422 kts | 34° |
| 2026-04-22 19:51 | 56.96359 | -2.71475 | 25000 ft | 423 kts | 34° |
| 2026-04-22 19:51 | 56.98771 | -2.68392 | 25008 ft | 423 kts | 34° |
| 2026-04-22 19:51 | 57.01184 | -2.65302 | 25008 ft | 423 kts | 34° |
| 2026-04-22 19:52 | 57.03594 | -2.62210 | 25003 ft | 423 kts | 34° |
| 2026-04-22 19:52 | 57.05996 | -2.59124 | 25002 ft | 422 kts | 34° |
| 2026-04-22 19:52 | 57.08420 | -2.56005 | 25148 ft | 427 kts | 35° |
| 2026-04-22 19:52 | 57.10854 | -2.52868 | 25615 ft | 428 kts | 35° |
| 2026-04-22 19:53 | 57.13289 | -2.49724 | 26130 ft | 428 kts | 35° |
| 2026-04-22 19:53 | 57.15730 | -2.46568 | 26607 ft | 429 kts | 35° |
| 2026-04-22 19:53 | 57.18179 | -2.43396 | 26979 ft | 432 kts | 35° |
| 2026-04-22 19:53 | 57.20650 | -2.40189 | 27337 ft | 435 kts | 35° |
| 2026-04-22 19:54 | 57.23133 | -2.36963 | 27702 ft | 438 kts | 35° |
| 2026-04-22 19:54 | 57.25626 | -2.33720 | 28075 ft | 440 kts | 35° |
| 2026-04-22 19:54 | 57.27913 | -2.30069 | 28368 ft | 443 kts | 50° |
| 2026-04-22 19:54 | 57.29518 | -2.25124 | 28695 ft | 446 kts | 69° |
| 2026-04-22 19:55 | 57.30274 | -2.19666 | 29034 ft | 447 kts | 84° |
| 2026-04-22 19:55 | 57.30186 | -2.13905 | 29360 ft | 449 kts | 97° |
| 2026-04-22 19:55 | 57.29764 | -2.08188 | 29673 ft | 451 kts | 98° |
| 2026-04-22 19:55 | 57.29279 | -2.02433 | 29943 ft | 453 kts | 99° |
| 2026-04-22 19:56 | 57.28778 | -1.96667 | 30222 ft | 456 kts | 99° |
| 2026-04-22 19:56 | 57.28279 | -1.90872 | 30512 ft | 457 kts | 99° |
| 2026-04-22 19:56 | 57.27790 | -1.85053 | 30794 ft | 459 kts | 98° |
| 2026-04-22 19:56 | 57.27311 | -1.79223 | 31116 ft | 459 kts | 98° |
| 2026-04-22 19:57 | 57.26839 | -1.73401 | 31510 ft | 457 kts | 98° |
| 2026-04-22 19:57 | 57.26371 | -1.67600 | 31903 ft | 456 kts | 98° |
| 2026-04-22 19:57 | 57.25905 | -1.61814 | 32247 ft | 455 kts | 98° |
| 2026-04-22 19:57 | 57.25437 | -1.56033 | 32560 ft | 455 kts | 98° |
| 2026-04-22 19:58 | 57.24967 | -1.50258 | 32881 ft | 455 kts | 98° |
| 2026-04-22 19:58 | 57.24495 | -1.44494 | 33218 ft | 454 kts | 98° |
| 2026-04-22 19:58 | 57.24020 | -1.38739 | 33542 ft | 453 kts | 98° |
| 2026-04-22 19:58 | 57.23544 | -1.33000 | 33843 ft | 452 kts | 98° |
| 2026-04-22 19:59 | 57.23065 | -1.27262 | 34139 ft | 452 kts | 99° |
| 2026-04-22 20:00 | 57.20148 | -0.93036 | 35814 ft | 448 kts | 99° |
| 2026-04-22 20:00 | 57.19655 | -0.87360 | 36066 ft | 448 kts | 99° |
| 2026-04-22 20:01 | 57.19161 | -0.81700 | 36316 ft | 448 kts | 99° |
| 2026-04-22 20:01 | 57.18663 | -0.76034 | 36522 ft | 448 kts | 99° |
| 2026-04-22 20:01 | 57.18163 | -0.70369 | 36729 ft | 448 kts | 99° |
| 2026-04-22 20:01 | 57.17666 | -0.64775 | 36943 ft | 448 kts | 99° |
| 2026-04-22 20:02 | 57.17161 | -0.59115 | 37157 ft | 448 kts | 99° |
| 2026-04-22 20:02 | 57.16653 | -0.53454 | 37364 ft | 448 kts | 99° |
| 2026-04-22 20:02 | 57.16142 | -0.47789 | 37548 ft | 448 kts | 99° |
| 2026-04-22 20:02 | 57.15630 | -0.42137 | 37746 ft | 448 kts | 99° |
| 2026-04-22 20:03 | 57.15114 | -0.36478 | 37930 ft | 448 kts | 99° |
| 2026-04-22 20:03 | 57.14596 | -0.30823 | 38119 ft | 448 kts | 99° |
| 2026-04-22 20:03 | 57.14076 | -0.25176 | 38310 ft | 447 kts | 99° |
| 2026-04-22 20:03 | 57.13553 | -0.19524 | 38482 ft | 447 kts | 99° |
| 2026-04-22 20:04 | 57.13028 | -0.13889 | 38630 ft | 447 kts | 99° |
| 2026-04-22 20:04 | 57.12500 | -0.08239 | 38802 ft | 447 kts | 99° |
| 2026-04-22 20:04 | 57.11970 | -0.02605 | 38963 ft | 447 kts | 100° |
| 2026-04-22 20:05 | 57.10897 | 0.08728 | 38992 ft | 450 kts | 100° |
| 2026-04-22 20:05 | 57.09815 | 0.20042 | 38998 ft | 448 kts | 100° |
| 2026-04-22 20:06 | 57.08728 | 0.31287 | 39000 ft | 445 kts | 100° |
| 2026-04-22 20:06 | 57.07637 | 0.42466 | 39004 ft | 443 kts | 100° |
| 2026-04-22 20:07 | 57.06540 | 0.53600 | 39003 ft | 442 kts | 100° |